sensor_id;sensor_type;location;lat;lon;timestamp;temperature;humidity
21246;DHT22;10781;50.928;4.440;2023-03-14T00:01:16;12.20;99.90
21246;DHT22;10781;50.928;4.440;2023-03-14T00:03:42;12.20;99.90
21246;DHT22;10781;50.928;4.440;2023-03-14T00:06:10;12.30;99.90
21246;DHT22;10781;50.928;4.440;2023-03-14T00:08:36;12.30;99.90
21246;DHT22;10781;50.928;4.440;2023-03-14T00:11:10;12.20;99.90
21246;DHT22;10781;50.928;4.440;2023-03-14T00:13:36;12.00;99.90
21246;DHT22;10781;50.928;4.440;2023-03-14T00:16:07;11.90;99.90
21246;DHT22;10781;50.928;4.440;2023-03-14T00:18:33;12.00;99.90
21246;DHT22;10781;50.928;4.440;2023-03-14T00:21:00;12.00;99.90
21246;DHT22;10781;50.928;4.440;2023-03-14T00:23:28;12.00;99.90
21246;DHT22;10781;50.928;4.440;2023-03-14T00:25:57;12.00;99.90
21246;DHT22;10781;50.928;4.440;2023-03-14T00:28:23;12.00;99.90
21246;DHT22;10781;50.928;4.440;2023-03-14T00:30:49;12.00;99.90
21246;DHT22;10781;50.928;4.440;2023-03-14T00:33:14;12.00;99.90
21246;DHT22;10781;50.928;4.440;2023-03-14T00:35:40;11.90;99.90
21246;DHT22;10781;50.928;4.440;2023-03-14T00:38:06;12.00;99.90
21246;DHT22;10781;50.928;4.440;2023-03-14T00:40:31;12.10;99.90
21246;DHT22;10781;50.928;4.440;2023-03-14T00:42:57;12.20;99.90
21246;DHT22;10781;50.928;4.440;2023-03-14T00:45:22;12.20;99.90
21246;DHT22;10781;50.928;4.440;2023-03-14T00:47:48;12.10;99.90
21246;DHT22;10781;50.928;4.440;2023-03-14T00:50:14;12.00;99.90
21246;DHT22;10781;50.928;4.440;2023-03-14T00:52:39;12.00;99.90
21246;DHT22;10781;50.928;4.440;2023-03-14T00:55:05;12.00;99.90
21246;DHT22;10781;50.928;4.440;2023-03-14T00:57:31;12.00;99.90
21246;DHT22;10781;50.928;4.440;2023-03-14T00:59:57;12.00;99.90
21246;DHT22;10781;50.928;4.440;2023-03-14T01:02:22;12.00;99.90
21246;DHT22;10781;50.928;4.440;2023-03-14T01:04:49;12.00;99.90
21246;DHT22;10781;50.928;4.440;2023-03-14T01:07:15;12.10;99.90
21246;DHT22;10781;50.928;4.440;2023-03-14T01:09:41;12.00;99.90
21246;DHT22;10781;50.928;4.440;2023-03-14T01:12:06;12.00;99.90
21246;DHT22;10781;50.928;4.440;2023-03-14T01:14:32;12.00;99.90
21246;DHT22;10781;50.928;4.440;2023-03-14T01:16:58;12.00;99.90
21246;DHT22;10781;50.928;4.440;2023-03-14T01:19:27;12.10;99.90
21246;DHT22;10781;50.928;4.440;2023-03-14T01:21:53;12.00;99.90
21246;DHT22;10781;50.928;4.440;2023-03-14T01:24:19;11.90;99.90
21246;DHT22;10781;50.928;4.440;2023-03-14T01:26:46;11.80;99.90
21246;DHT22;10781;50.928;4.440;2023-03-14T01:29:11;11.70;99.90
21246;DHT22;10781;50.928;4.440;2023-03-14T01:31:37;11.80;99.90
21246;DHT22;10781;50.928;4.440;2023-03-14T01:34:03;11.80;99.90
21246;DHT22;10781;50.928;4.440;2023-03-14T01:36:29;11.80;99.90
21246;DHT22;10781;50.928;4.440;2023-03-14T01:38:54;11.80;99.90
21246;DHT22;10781;50.928;4.440;2023-03-14T01:41:25;11.70;99.90
21246;DHT22;10781;50.928;4.440;2023-03-14T01:43:51;11.70;99.90
21246;DHT22;10781;50.928;4.440;2023-03-14T01:49:06;11.60;99.90
21246;DHT22;10781;50.928;4.440;2023-03-14T01:54:12;11.60;99.90
21246;DHT22;10781;50.928;4.440;2023-03-14T01:56:40;11.50;99.90
21246;DHT22;10781;50.928;4.440;2023-03-14T01:59:08;11.40;99.90
21246;DHT22;10781;50.928;4.440;2023-03-14T02:01:35;11.40;99.90
21246;DHT22;10781;50.928;4.440;2023-03-14T02:04:04;11.40;99.90
21246;DHT22;10781;50.928;4.440;2023-03-14T02:07:00;11.40;99.90
21246;DHT22;10781;50.928;4.440;2023-03-14T02:09:24;11.40;99.90
21246;DHT22;10781;50.928;4.440;2023-03-14T02:11:50;11.40;99.90
21246;DHT22;10781;50.928;4.440;2023-03-14T02:14:32;11.60;99.90
21246;DHT22;10781;50.928;4.440;2023-03-14T02:16:59;11.80;99.90
21246;DHT22;10781;50.928;4.440;2023-03-14T02:22:09;11.80;99.90
21246;DHT22;10781;50.928;4.440;2023-03-14T02:24:51;11.90;99.90
21246;DHT22;10781;50.928;4.440;2023-03-14T02:27:18;11.80;99.90
21246;DHT22;10781;50.928;4.440;2023-03-14T02:30:01;11.70;99.90
21246;DHT22;10781;50.928;4.440;2023-03-14T02:32:30;11.50;99.90
21246;DHT22;10781;50.928;4.440;2023-03-14T02:34:58;11.50;99.90
21246;DHT22;10781;50.928;4.440;2023-03-14T02:37:47;11.30;99.90
21246;DHT22;10781;50.928;4.440;2023-03-14T02:40:13;11.20;99.90
21246;DHT22;10781;50.928;4.440;2023-03-14T02:42:39;11.10;99.90
21246;DHT22;10781;50.928;4.440;2023-03-14T02:47:33;11.00;99.90
21246;DHT22;10781;50.928;4.440;2023-03-14T02:50:12;11.10;99.90
21246;DHT22;10781;50.928;4.440;2023-03-14T02:52:38;11.20;99.90
21246;DHT22;10781;50.928;4.440;2023-03-14T02:55:04;11.30;99.90
21246;DHT22;10781;50.928;4.440;2023-03-14T02:57:30;11.40;99.90
21246;DHT22;10781;50.928;4.440;2023-03-14T03:00:00;11.40;99.90
21246;DHT22;10781;50.928;4.440;2023-03-14T03:02:26;11.40;99.90
21246;DHT22;10781;50.928;4.440;2023-03-14T03:04:52;11.40;99.90
21246;DHT22;10781;50.928;4.440;2023-03-14T03:07:18;11.30;99.90
21246;DHT22;10781;50.928;4.440;2023-03-14T03:09:44;11.20;99.90
21246;DHT22;10781;50.928;4.440;2023-03-14T03:12:10;11.30;99.90
21246;DHT22;10781;50.928;4.440;2023-03-14T03:14:36;11.30;99.90
21246;DHT22;10781;50.928;4.440;2023-03-14T03:17:04;11.30;99.90
21246;DHT22;10781;50.928;4.440;2023-03-14T03:19:30;11.50;99.90
21246;DHT22;10781;50.928;4.440;2023-03-14T03:21:56;11.50;99.90
21246;DHT22;10781;50.928;4.440;2023-03-14T03:24:21;11.50;99.90
21246;DHT22;10781;50.928;4.440;2023-03-14T03:26:47;11.50;99.90
21246;DHT22;10781;50.928;4.440;2023-03-14T03:29:13;11.50;99.90
21246;DHT22;10781;50.928;4.440;2023-03-14T03:31:39;11.50;99.90
21246;DHT22;10781;50.928;4.440;2023-03-14T03:34:04;11.50;99.90
21246;DHT22;10781;50.928;4.440;2023-03-14T03:36:30;11.60;99.90
21246;DHT22;10781;50.928;4.440;2023-03-14T03:38:56;11.60;99.90
21246;DHT22;10781;50.928;4.440;2023-03-14T03:41:21;11.40;99.90
21246;DHT22;10781;50.928;4.440;2023-03-14T03:43:47;11.30;99.90
21246;DHT22;10781;50.928;4.440;2023-03-14T03:46:13;11.40;99.90
21246;DHT22;10781;50.928;4.440;2023-03-14T03:48:38;11.50;99.90
21246;DHT22;10781;50.928;4.440;2023-03-14T03:51:04;11.50;99.90
21246;DHT22;10781;50.928;4.440;2023-03-14T03:53:30;11.50;99.90
21246;DHT22;10781;50.928;4.440;2023-03-14T03:55:55;11.40;99.90
21246;DHT22;10781;50.928;4.440;2023-03-14T03:58:21;11.50;99.90
21246;DHT22;10781;50.928;4.440;2023-03-14T04:00:47;11.50;99.90
21246;DHT22;10781;50.928;4.440;2023-03-14T04:03:12;11.60;99.90
21246;DHT22;10781;50.928;4.440;2023-03-14T04:05:38;11.70;99.90
21246;DHT22;10781;50.928;4.440;2023-03-14T04:08:04;11.60;99.90
21246;DHT22;10781;50.928;4.440;2023-03-14T04:10:30;11.60;99.90
21246;DHT22;10781;50.928;4.440;2023-03-14T04:12:55;11.60;99.90
21246;DHT22;10781;50.928;4.440;2023-03-14T04:15:21;11.60;99.90
21246;DHT22;10781;50.928;4.440;2023-03-14T04:17:47;11.70;99.90
21246;DHT22;10781;50.928;4.440;2023-03-14T04:20:12;11.70;99.90
21246;DHT22;10781;50.928;4.440;2023-03-14T04:22:38;11.70;99.90
21246;DHT22;10781;50.928;4.440;2023-03-14T04:25:05;11.60;99.90
21246;DHT22;10781;50.928;4.440;2023-03-14T04:27:31;11.50;99.90
21246;DHT22;10781;50.928;4.440;2023-03-14T04:29:56;11.50;99.90
21246;DHT22;10781;50.928;4.440;2023-03-14T04:32:22;11.40;99.90
21246;DHT22;10781;50.928;4.440;2023-03-14T04:34:48;11.50;99.90
21246;DHT22;10781;50.928;4.440;2023-03-14T04:37:13;11.50;99.90
21246;DHT22;10781;50.928;4.440;2023-03-14T04:39:39;11.50;99.90
21246;DHT22;10781;50.928;4.440;2023-03-14T04:42:05;11.50;99.90
21246;DHT22;10781;50.928;4.440;2023-03-14T04:44:31;11.50;99.90
21246;DHT22;10781;50.928;4.440;2023-03-14T04:46:56;11.30;99.90
21246;DHT22;10781;50.928;4.440;2023-03-14T04:49:22;11.30;99.90
21246;DHT22;10781;50.928;4.440;2023-03-14T04:51:48;11.30;99.90
21246;DHT22;10781;50.928;4.440;2023-03-14T04:54:16;11.40;99.90
21246;DHT22;10781;50.928;4.440;2023-03-14T04:56:42;11.50;99.90
21246;DHT22;10781;50.928;4.440;2023-03-14T04:59:07;11.50;99.90
21246;DHT22;10781;50.928;4.440;2023-03-14T05:01:34;11.40;99.90
21246;DHT22;10781;50.928;4.440;2023-03-14T05:03:59;11.40;99.90
21246;DHT22;10781;50.928;4.440;2023-03-14T05:06:25;11.50;99.90
21246;DHT22;10781;50.928;4.440;2023-03-14T05:08:51;11.50;99.90
21246;DHT22;10781;50.928;4.440;2023-03-14T05:11:16;11.40;99.90
21246;DHT22;10781;50.928;4.440;2023-03-14T05:13:42;11.40;99.90
21246;DHT22;10781;50.928;4.440;2023-03-14T05:16:10;11.40;99.90
21246;DHT22;10781;50.928;4.440;2023-03-14T05:18:36;11.50;99.90
21246;DHT22;10781;50.928;4.440;2023-03-14T05:21:02;11.50;99.90
21246;DHT22;10781;50.928;4.440;2023-03-14T05:23:28;11.60;99.90
21246;DHT22;10781;50.928;4.440;2023-03-14T05:25:54;11.60;99.90
21246;DHT22;10781;50.928;4.440;2023-03-14T05:28:20;11.40;99.90
21246;DHT22;10781;50.928;4.440;2023-03-14T05:30:45;11.20;99.90
21246;DHT22;10781;50.928;4.440;2023-03-14T05:33:11;11.30;99.90
21246;DHT22;10781;50.928;4.440;2023-03-14T05:35:37;11.20;99.90
21246;DHT22;10781;50.928;4.440;2023-03-14T05:38:03;11.20;99.90
21246;DHT22;10781;50.928;4.440;2023-03-14T05:40:28;11.40;99.90
21246;DHT22;10781;50.928;4.440;2023-03-14T05:42:54;11.30;99.90
21246;DHT22;10781;50.928;4.440;2023-03-14T05:45:20;11.10;99.90
21246;DHT22;10781;50.928;4.440;2023-03-14T05:47:45;11.20;99.90
21246;DHT22;10781;50.928;4.440;2023-03-14T05:50:11;11.20;99.90
21246;DHT22;10781;50.928;4.440;2023-03-14T05:52:37;11.30;99.90
21246;DHT22;10781;50.928;4.440;2023-03-14T05:55:03;11.10;99.90
21246;DHT22;10781;50.928;4.440;2023-03-14T05:57:29;11.00;99.90
21246;DHT22;10781;50.928;4.440;2023-03-14T05:59:55;11.00;99.90
21246;DHT22;10781;50.928;4.440;2023-03-14T06:02:20;11.10;99.90
21246;DHT22;10781;50.928;4.440;2023-03-14T06:04:46;11.00;99.90
21246;DHT22;10781;50.928;4.440;2023-03-14T06:07:12;11.00;99.90
21246;DHT22;10781;50.928;4.440;2023-03-14T06:09:37;10.90;99.90
21246;DHT22;10781;50.928;4.440;2023-03-14T06:12:05;11.00;99.90
21246;DHT22;10781;50.928;4.440;2023-03-14T06:14:30;11.10;99.90
21246;DHT22;10781;50.928;4.440;2023-03-14T06:16:56;11.10;99.90
21246;DHT22;10781;50.928;4.440;2023-03-14T06:19:24;11.00;99.90
21246;DHT22;10781;50.928;4.440;2023-03-14T06:21:50;11.00;99.90
21246;DHT22;10781;50.928;4.440;2023-03-14T06:24:16;11.00;99.90
21246;DHT22;10781;50.928;4.440;2023-03-14T06:26:41;11.00;99.90
21246;DHT22;10781;50.928;4.440;2023-03-14T06:29:07;11.00;99.90
21246;DHT22;10781;50.928;4.440;2023-03-14T06:31:33;10.90;99.90
21246;DHT22;10781;50.928;4.440;2023-03-14T06:33:59;10.90;99.90
21246;DHT22;10781;50.928;4.440;2023-03-14T06:36:25;10.90;99.90
21246;DHT22;10781;50.928;4.440;2023-03-14T06:38:50;10.90;99.90
21246;DHT22;10781;50.928;4.440;2023-03-14T06:41:16;10.90;99.90
21246;DHT22;10781;50.928;4.440;2023-03-14T06:43:42;10.90;99.90
21246;DHT22;10781;50.928;4.440;2023-03-14T06:46:07;10.80;99.90
21246;DHT22;10781;50.928;4.440;2023-03-14T06:48:34;10.70;99.90
21246;DHT22;10781;50.928;4.440;2023-03-14T06:51:00;10.40;99.90
21246;DHT22;10781;50.928;4.440;2023-03-14T06:53:26;10.20;99.90
21246;DHT22;10781;50.928;4.440;2023-03-14T06:55:52;9.60;99.90
21246;DHT22;10781;50.928;4.440;2023-03-14T06:58:17;9.30;99.90
21246;DHT22;10781;50.928;4.440;2023-03-14T07:00:43;9.10;99.90
21246;DHT22;10781;50.928;4.440;2023-03-14T07:03:10;8.90;99.90
21246;DHT22;10781;50.928;4.440;2023-03-14T07:05:36;8.80;99.90
21246;DHT22;10781;50.928;4.440;2023-03-14T07:08:01;8.90;99.90
21246;DHT22;10781;50.928;4.440;2023-03-14T07:10:27;8.80;99.90
21246;DHT22;10781;50.928;4.440;2023-03-14T07:12:53;8.60;99.90
21246;DHT22;10781;50.928;4.440;2023-03-14T07:15:19;8.50;99.90
21246;DHT22;10781;50.928;4.440;2023-03-14T07:17:46;8.40;99.90
21246;DHT22;10781;50.928;4.440;2023-03-14T07:20:13;8.30;99.90
21246;DHT22;10781;50.928;4.440;2023-03-14T07:22:39;8.30;99.90
21246;DHT22;10781;50.928;4.440;2023-03-14T07:25:05;8.30;99.90
21246;DHT22;10781;50.928;4.440;2023-03-14T07:27:30;8.30;99.90
21246;DHT22;10781;50.928;4.440;2023-03-14T07:29:56;8.40;99.90
21246;DHT22;10781;50.928;4.440;2023-03-14T07:32:22;8.40;99.90
21246;DHT22;10781;50.928;4.440;2023-03-14T07:34:47;8.40;99.90
21246;DHT22;10781;50.928;4.440;2023-03-14T07:37:13;8.40;99.90
21246;DHT22;10781;50.928;4.440;2023-03-14T07:39:38;8.40;99.90
21246;DHT22;10781;50.928;4.440;2023-03-14T07:42:04;8.50;99.90
21246;DHT22;10781;50.928;4.440;2023-03-14T07:44:30;8.40;99.90
21246;DHT22;10781;50.928;4.440;2023-03-14T07:46:56;8.40;99.90
21246;DHT22;10781;50.928;4.440;2023-03-14T07:49:21;8.40;99.90
21246;DHT22;10781;50.928;4.440;2023-03-14T07:51:48;8.40;99.90
21246;DHT22;10781;50.928;4.440;2023-03-14T07:54:14;8.50;99.90
21246;DHT22;10781;50.928;4.440;2023-03-14T07:56:40;8.70;99.90
21246;DHT22;10781;50.928;4.440;2023-03-14T07:59:06;8.80;99.90
21246;DHT22;10781;50.928;4.440;2023-03-14T08:01:32;8.90;99.90
21246;DHT22;10781;50.928;4.440;2023-03-14T08:03:58;8.70;99.90
21246;DHT22;10781;50.928;4.440;2023-03-14T08:06:24;8.60;99.90
21246;DHT22;10781;50.928;4.440;2023-03-14T08:08:50;8.50;99.90
21246;DHT22;10781;50.928;4.440;2023-03-14T08:11:16;8.50;99.90
21246;DHT22;10781;50.928;4.440;2023-03-14T08:13:41;8.50;99.90
21246;DHT22;10781;50.928;4.440;2023-03-14T08:16:08;8.50;99.90
21246;DHT22;10781;50.928;4.440;2023-03-14T08:18:33;8.50;99.90
21246;DHT22;10781;50.928;4.440;2023-03-14T08:20:59;8.40;99.90
21246;DHT22;10781;50.928;4.440;2023-03-14T08:23:25;8.40;99.90
21246;DHT22;10781;50.928;4.440;2023-03-14T08:25:51;8.30;99.90
21246;DHT22;10781;50.928;4.440;2023-03-14T08:28:18;8.30;99.90
21246;DHT22;10781;50.928;4.440;2023-03-14T08:30:43;8.30;99.90
21246;DHT22;10781;50.928;4.440;2023-03-14T08:33:09;8.20;99.90
21246;DHT22;10781;50.928;4.440;2023-03-14T08:35:37;8.30;99.90
21246;DHT22;10781;50.928;4.440;2023-03-14T08:38:03;8.30;99.90
21246;DHT22;10781;50.928;4.440;2023-03-14T08:40:28;8.30;99.90
21246;DHT22;10781;50.928;4.440;2023-03-14T08:42:54;8.20;99.90
21246;DHT22;10781;50.928;4.440;2023-03-14T08:45:20;8.10;99.90
21246;DHT22;10781;50.928;4.440;2023-03-14T08:47:46;8.10;99.90
21246;DHT22;10781;50.928;4.440;2023-03-14T08:50:12;7.90;99.90
21246;DHT22;10781;50.928;4.440;2023-03-14T08:52:38;7.80;99.90
21246;DHT22;10781;50.928;4.440;2023-03-14T08:55:07;7.90;99.90
21246;DHT22;10781;50.928;4.440;2023-03-14T08:57:33;8.00;99.90
21246;DHT22;10781;50.928;4.440;2023-03-14T08:59:59;8.20;99.90
21246;DHT22;10781;50.928;4.440;2023-03-14T09:02:25;8.30;99.90
21246;DHT22;10781;50.928;4.440;2023-03-14T09:04:51;8.20;99.90
21246;DHT22;10781;50.928;4.440;2023-03-14T09:07:18;8.20;99.90
21246;DHT22;10781;50.928;4.440;2023-03-14T09:09:44;8.30;99.90
21246;DHT22;10781;50.928;4.440;2023-03-14T09:12:10;8.40;99.90
21246;DHT22;10781;50.928;4.440;2023-03-14T09:14:36;8.40;99.90
21246;DHT22;10781;50.928;4.440;2023-03-14T09:17:03;8.50;99.90
21246;DHT22;10781;50.928;4.440;2023-03-14T09:19:28;8.50;99.90
21246;DHT22;10781;50.928;4.440;2023-03-14T09:21:54;8.60;99.90
21246;DHT22;10781;50.928;4.440;2023-03-14T09:24:20;8.50;99.90
21246;DHT22;10781;50.928;4.440;2023-03-14T09:26:46;8.30;99.90
21246;DHT22;10781;50.928;4.440;2023-03-14T09:29:12;8.40;99.90
21246;DHT22;10781;50.928;4.440;2023-03-14T09:31:37;8.40;99.90
21246;DHT22;10781;50.928;4.440;2023-03-14T09:34:03;8.40;99.90
21246;DHT22;10781;50.928;4.440;2023-03-14T09:36:29;8.40;99.90
21246;DHT22;10781;50.928;4.440;2023-03-14T09:38:54;8.40;99.90
21246;DHT22;10781;50.928;4.440;2023-03-14T09:41:29;8.30;99.90
21246;DHT22;10781;50.928;4.440;2023-03-14T09:46:45;8.10;99.90
21246;DHT22;10781;50.928;4.440;2023-03-14T09:49:34;8.10;99.90
21246;DHT22;10781;50.928;4.440;2023-03-14T09:52:05;7.80;99.90
21246;DHT22;10781;50.928;4.440;2023-03-14T09:54:39;7.90;99.90
21246;DHT22;10781;50.928;4.440;2023-03-14T09:57:14;8.00;99.90
21246;DHT22;10781;50.928;4.440;2023-03-14T09:59:43;8.00;99.90
21246;DHT22;10781;50.928;4.440;2023-03-14T10:02:31;7.90;99.90
21246;DHT22;10781;50.928;4.440;2023-03-14T10:04:59;8.10;99.90
21246;DHT22;10781;50.928;4.440;2023-03-14T10:07:29;7.90;99.90
21246;DHT22;10781;50.928;4.440;2023-03-14T10:09:55;7.80;99.90
21246;DHT22;10781;50.928;4.440;2023-03-14T10:12:33;7.90;99.90
21246;DHT22;10781;50.928;4.440;2023-03-14T10:15:07;7.90;99.90
21246;DHT22;10781;50.928;4.440;2023-03-14T10:17:49;7.70;99.90
21246;DHT22;10781;50.928;4.440;2023-03-14T10:20:35;7.60;99.90
21246;DHT22;10781;50.928;4.440;2023-03-14T10:23:04;7.50;99.90
21246;DHT22;10781;50.928;4.440;2023-03-14T10:25:32;7.50;99.90
21246;DHT22;10781;50.928;4.440;2023-03-14T10:27:59;7.50;99.90
21246;DHT22;10781;50.928;4.440;2023-03-14T10:30:40;7.40;99.90
21246;DHT22;10781;50.928;4.440;2023-03-14T10:33:20;7.50;99.90
21246;DHT22;10781;50.928;4.440;2023-03-14T10:38:26;7.10;99.90
21246;DHT22;10781;50.928;4.440;2023-03-14T10:40:53;7.20;99.90
21246;DHT22;10781;50.928;4.440;2023-03-14T10:43:23;7.20;99.90
21246;DHT22;10781;50.928;4.440;2023-03-14T10:45:57;7.30;99.90
21246;DHT22;10781;50.928;4.440;2023-03-14T10:48:34;7.50;99.90
21246;DHT22;10781;50.928;4.440;2023-03-14T10:51:10;7.50;99.90
21246;DHT22;10781;50.928;4.440;2023-03-14T10:53:46;7.50;99.90
21246;DHT22;10781;50.928;4.440;2023-03-14T10:56:14;7.50;99.90
21246;DHT22;10781;50.928;4.440;2023-03-14T10:58:45;7.20;99.90
21246;DHT22;10781;50.928;4.440;2023-03-14T11:04:03;7.10;99.90
21246;DHT22;10781;50.928;4.440;2023-03-14T11:06:45;7.20;99.90
21246;DHT22;10781;50.928;4.440;2023-03-14T11:15:31;7.30;99.90
21246;DHT22;10781;50.928;4.440;2023-03-14T11:18:24;7.20;99.90
21246;DHT22;10781;50.928;4.440;2023-03-14T11:20:55;7.20;99.90
21246;DHT22;10781;50.928;4.440;2023-03-14T11:26:09;7.50;99.90
21246;DHT22;10781;50.928;4.440;2023-03-14T11:28:47;7.60;99.90
21246;DHT22;10781;50.928;4.440;2023-03-14T11:31:20;7.60;99.90
21246;DHT22;10781;50.928;4.440;2023-03-14T11:36:53;7.50;99.90
21246;DHT22;10781;50.928;4.440;2023-03-14T11:39:20;7.40;99.90
21246;DHT22;10781;50.928;4.440;2023-03-14T11:41:50;7.30;99.90
21246;DHT22;10781;50.928;4.440;2023-03-14T11:44:29;7.20;99.90
21246;DHT22;10781;50.928;4.440;2023-03-14T11:50:14;7.40;99.90
21246;DHT22;10781;50.928;4.440;2023-03-14T11:57:44;7.60;99.90
21246;DHT22;10781;50.928;4.440;2023-03-14T12:00:17;7.60;99.90
21246;DHT22;10781;50.928;4.440;2023-03-14T12:03:24;7.80;99.90
21246;DHT22;10781;50.928;4.440;2023-03-14T12:06:13;8.00;99.90
21246;DHT22;10781;50.928;4.440;2023-03-14T12:09:03;8.10;99.90
21246;DHT22;10781;50.928;4.440;2023-03-14T12:13:55;7.70;99.90
21246;DHT22;10781;50.928;4.440;2023-03-14T12:18:50;7.70;99.90
21246;DHT22;10781;50.928;4.440;2023-03-14T12:21:17;7.80;99.90
21246;DHT22;10781;50.928;4.440;2023-03-14T12:23:53;7.70;99.90
21246;DHT22;10781;50.928;4.440;2023-03-14T12:26:24;7.60;99.90
21246;DHT22;10781;50.928;4.440;2023-03-14T12:29:09;7.60;99.90
21246;DHT22;10781;50.928;4.440;2023-03-14T12:31:35;7.60;99.90
21246;DHT22;10781;50.928;4.440;2023-03-14T12:44:45;7.50;99.90
21246;DHT22;10781;50.928;4.440;2023-03-14T12:49:46;8.20;99.90
21246;DHT22;10781;50.928;4.440;2023-03-14T12:52:16;8.40;99.90
21246;DHT22;10781;50.928;4.440;2023-03-14T12:55:10;8.70;99.90
21246;DHT22;10781;50.928;4.440;2023-03-14T13:00:55;8.80;99.90
21246;DHT22;10781;50.928;4.440;2023-03-14T13:03:25;8.80;99.90
21246;DHT22;10781;50.928;4.440;2023-03-14T13:05:58;8.80;99.90
21246;DHT22;10781;50.928;4.440;2023-03-14T13:11:02;8.80;99.90
21246;DHT22;10781;50.928;4.440;2023-03-14T13:13:30;8.80;99.90
21246;DHT22;10781;50.928;4.440;2023-03-14T13:16:00;8.70;99.90
21246;DHT22;10781;50.928;4.440;2023-03-14T13:18:36;8.60;99.90
21246;DHT22;10781;50.928;4.440;2023-03-14T13:21:19;8.60;99.90
21246;DHT22;10781;50.928;4.440;2023-03-14T13:23:57;8.60;99.90
21246;DHT22;10781;50.928;4.440;2023-03-14T13:26:42;8.70;99.90
21246;DHT22;10781;50.928;4.440;2023-03-14T13:29:23;8.80;99.90
21246;DHT22;10781;50.928;4.440;2023-03-14T13:31:51;9.00;99.90
21246;DHT22;10781;50.928;4.440;2023-03-14T13:34:18;9.00;99.90
21246;DHT22;10781;50.928;4.440;2023-03-14T13:36:44;9.00;99.90
21246;DHT22;10781;50.928;4.440;2023-03-14T13:39:14;9.00;99.90
21246;DHT22;10781;50.928;4.440;2023-03-14T13:41:42;9.10;99.90
21246;DHT22;10781;50.928;4.440;2023-03-14T13:44:14;9.30;99.90
21246;DHT22;10781;50.928;4.440;2023-03-14T13:46:41;9.20;99.90
21246;DHT22;10781;50.928;4.440;2023-03-14T13:49:12;9.30;99.90
21246;DHT22;10781;50.928;4.440;2023-03-14T13:51:43;9.40;99.90
21246;DHT22;10781;50.928;4.440;2023-03-14T13:54:16;9.40;99.90
21246;DHT22;10781;50.928;4.440;2023-03-14T13:56:42;9.50;99.90
21246;DHT22;10781;50.928;4.440;2023-03-14T13:59:26;9.60;99.90
21246;DHT22;10781;50.928;4.440;2023-03-14T14:01:53;9.50;99.90
21246;DHT22;10781;50.928;4.440;2023-03-14T14:04:22;9.40;99.90
21246;DHT22;10781;50.928;4.440;2023-03-14T14:09:19;9.30;99.90
21246;DHT22;10781;50.928;4.440;2023-03-14T14:12:02;8.90;99.90
21246;DHT22;10781;50.928;4.440;2023-03-14T14:19:41;8.30;99.90
21246;DHT22;10781;50.928;4.440;2023-03-14T14:22:11;8.20;99.90
21246;DHT22;10781;50.928;4.440;2023-03-14T14:24:37;8.10;99.90
21246;DHT22;10781;50.928;4.440;2023-03-14T14:27:17;8.10;99.90
21246;DHT22;10781;50.928;4.440;2023-03-14T14:29:44;8.10;99.90
21246;DHT22;10781;50.928;4.440;2023-03-14T14:32:15;8.00;99.90
21246;DHT22;10781;50.928;4.440;2023-03-14T14:34:46;8.00;99.90
21246;DHT22;10781;50.928;4.440;2023-03-14T14:39:44;7.60;99.90
21246;DHT22;10781;50.928;4.440;2023-03-14T14:42:17;7.60;99.90
21246;DHT22;10781;50.928;4.440;2023-03-14T14:44:44;7.70;99.90
21246;DHT22;10781;50.928;4.440;2023-03-14T14:47:15;7.60;99.90
21246;DHT22;10781;50.928;4.440;2023-03-14T14:49:43;7.30;99.90
21246;DHT22;10781;50.928;4.440;2023-03-14T14:52:20;7.00;99.90
21246;DHT22;10781;50.928;4.440;2023-03-14T14:54:48;6.70;99.90
21246;DHT22;10781;50.928;4.440;2023-03-14T14:57:36;6.70;99.90
21246;DHT22;10781;50.928;4.440;2023-03-14T15:00:17;6.80;99.90
21246;DHT22;10781;50.928;4.440;2023-03-14T15:02:47;6.80;99.90
21246;DHT22;10781;50.928;4.440;2023-03-14T15:05:16;6.90;99.90
21246;DHT22;10781;50.928;4.440;2023-03-14T15:07:42;7.10;99.90
21246;DHT22;10781;50.928;4.440;2023-03-14T15:10:13;7.40;99.90
21246;DHT22;10781;50.928;4.440;2023-03-14T15:12:38;7.60;99.90
21246;DHT22;10781;50.928;4.440;2023-03-14T15:15:04;7.80;99.90
21246;DHT22;10781;50.928;4.440;2023-03-14T15:17:31;8.00;99.90
21246;DHT22;10781;50.928;4.440;2023-03-14T15:19:57;8.30;99.90
21246;DHT22;10781;50.928;4.440;2023-03-14T15:22:24;8.40;99.90
21246;DHT22;10781;50.928;4.440;2023-03-14T15:24:49;8.40;99.90
21246;DHT22;10781;50.928;4.440;2023-03-14T15:27:17;8.40;99.90
21246;DHT22;10781;50.928;4.440;2023-03-14T15:29:43;8.40;99.90
21246;DHT22;10781;50.928;4.440;2023-03-14T15:32:15;8.50;99.90
21246;DHT22;10781;50.928;4.440;2023-03-14T15:34:42;8.80;99.90
21246;DHT22;10781;50.928;4.440;2023-03-14T15:37:13;8.90;99.90
21246;DHT22;10781;50.928;4.440;2023-03-14T15:39:41;9.10;99.90
21246;DHT22;10781;50.928;4.440;2023-03-14T15:42:07;9.00;99.90
21246;DHT22;10781;50.928;4.440;2023-03-14T15:44:34;8.90;99.90
21246;DHT22;10781;50.928;4.440;2023-03-14T15:47:00;8.80;99.90
21246;DHT22;10781;50.928;4.440;2023-03-14T15:49:26;8.90;99.90
21246;DHT22;10781;50.928;4.440;2023-03-14T15:51:52;9.10;99.90
21246;DHT22;10781;50.928;4.440;2023-03-14T15:54:18;9.10;99.90
21246;DHT22;10781;50.928;4.440;2023-03-14T15:56:43;9.10;99.90
21246;DHT22;10781;50.928;4.440;2023-03-14T15:59:09;9.00;99.90
21246;DHT22;10781;50.928;4.440;2023-03-14T16:01:34;8.90;99.90
21246;DHT22;10781;50.928;4.440;2023-03-14T16:04:00;8.70;99.90
21246;DHT22;10781;50.928;4.440;2023-03-14T16:06:27;8.50;99.90
21246;DHT22;10781;50.928;4.440;2023-03-14T16:08:53;8.30;99.90
21246;DHT22;10781;50.928;4.440;2023-03-14T16:11:19;8.40;99.90
21246;DHT22;10781;50.928;4.440;2023-03-14T16:13:46;8.60;99.90
21246;DHT22;10781;50.928;4.440;2023-03-14T16:16:11;8.50;99.90
21246;DHT22;10781;50.928;4.440;2023-03-14T16:18:38;8.50;99.90
21246;DHT22;10781;50.928;4.440;2023-03-14T16:21:11;8.50;99.90
21246;DHT22;10781;50.928;4.440;2023-03-14T16:23:37;8.60;99.90
21246;DHT22;10781;50.928;4.440;2023-03-14T16:26:14;8.50;99.90
21246;DHT22;10781;50.928;4.440;2023-03-14T16:28:41;8.40;99.90
21246;DHT22;10781;50.928;4.440;2023-03-14T16:31:09;8.60;99.90
21246;DHT22;10781;50.928;4.440;2023-03-14T16:33:37;8.40;99.90
21246;DHT22;10781;50.928;4.440;2023-03-14T16:36:04;8.50;99.90
21246;DHT22;10781;50.928;4.440;2023-03-14T16:38:33;8.50;99.90
21246;DHT22;10781;50.928;4.440;2023-03-14T16:41:01;8.50;99.90
21246;DHT22;10781;50.928;4.440;2023-03-14T16:43:27;8.60;99.90
21246;DHT22;10781;50.928;4.440;2023-03-14T16:45:54;8.70;99.90
21246;DHT22;10781;50.928;4.440;2023-03-14T16:48:21;8.70;99.90
21246;DHT22;10781;50.928;4.440;2023-03-14T16:50:49;8.50;99.90
21246;DHT22;10781;50.928;4.440;2023-03-14T16:53:15;8.40;99.90
21246;DHT22;10781;50.928;4.440;2023-03-14T16:55:41;8.30;99.90
21246;DHT22;10781;50.928;4.440;2023-03-14T16:58:07;8.40;99.90
21246;DHT22;10781;50.928;4.440;2023-03-14T17:00:33;8.50;99.90